Time;durP1;ratioP1;P1;durP2;ratioP2;P2;SDS_P1;SDS_P2;PMS_P1;PMS_P2;Temp;Humidity;BMP_temperature;BMP_pressure;BME280_temperature;BME280_humidity;BME280_pressure;Samples;Min_cycle;Max_cycle;Signal;HPM_P1;HPM_P2
2021/08/05 00:01:05;;;;;;;2.63;2.43;;;;;;;;;;492332;241;27594;-70
2021/08/05 00:03:07;;;;;;;2.60;2.40;;;;;;;;;;492331;241;27414;-72
2021/08/05 00:05:09;;;;;;;2.67;2.57;;;14.60;99.90;;;;;;492332;241;27990;-72
2021/08/05 00:07:10;;;;;;;2.30;2.20;;;14.60;99.90;;;;;;492318;241;29280;-71
2021/08/05 00:09:11;;;;;;;2.93;2.70;;;14.60;99.90;;;;;;492342;241;29374;-71
2021/08/05 00:11:13;;;;;;;2.80;2.60;;;;;;;;;;492317;241;28489;-72
2021/08/05 00:13:14;;;;;;;2.90;2.63;;;14.70;99.90;;;;;;492331;241;27511;-72
2021/08/05 00:15:17;;;;;;;2.67;2.47;;;;;;;;;;492319;241;28698;-72
2021/08/05 00:17:19;;;;;;;2.63;2.43;;;;;;;;;;492330;241;27518;-71
2021/08/05 00:19:20;;;;;;;2.77;2.57;;;14.80;99.90;;;;;;492335;241;27498;-71
2021/08/05 00:21:22;;;;;;;2.00;1.90;;;;;;;;;;492226;241;28906;-71
2021/08/05 00:23:23;;;;;;;2.70;2.50;;;14.80;99.90;;;;;;492309;241;27497;-72
2021/08/05 00:25:24;;;;;;;2.47;2.37;;;14.80;99.90;;;;;;492312;241;28176;-72
2021/08/05 00:27:27;;;;;;;2.57;2.43;;;;;;;;;;492256;241;28571;-69
2021/08/05 00:29:28;;;;;;;2.80;2.60;;;14.80;99.90;;;;;;492317;241;26247;-70
2021/08/05 00:31:29;;;;;;;2.40;2.30;;;14.80;99.90;;;;;;492321;241;28311;-69
2021/08/05 00:33:32;;;;;;;2.10;2.00;;;;;;;;;;492317;240;28568;-72
2021/08/05 00:35:34;;;;;;;2.70;2.50;;;;;;;;;;492317;241;27554;-72
2021/08/05 00:37:36;;;;;;;2.50;2.30;;;14.80;99.90;;;;;;492307;241;27447;-72
2021/08/05 00:39:38;;;;;;;2.47;2.27;;;;;;;;;;492339;241;27563;-72
2021/08/05 00:41:40;;;;;;;2.30;2.20;;;;;;;;;;492343;240;27435;-73
2021/08/05 00:43:41;;;;;;;2.43;2.23;;;14.80;99.90;;;;;;492331;241;27480;-72
2021/08/05 00:45:43;;;;;;;2.90;2.43;;;;;;;;;;492323;241;29189;-72
2021/08/05 00:47:44;;;;;;;2.37;2.27;;;14.70;99.90;;;;;;492315;241;27844;-72
2021/08/05 00:49:46;;;;;;;2.83;2.63;;;;;;;;;;492328;241;29021;-70
2021/08/05 00:51:48;;;;;;;3.10;2.40;;;14.70;99.90;;;;;;492330;241;27987;-73
2021/08/05 00:53:50;;;;;;;2.63;2.43;;;;;;;;;;492338;241;28254;-72
2021/08/05 00:55:52;;;;;;;2.50;2.30;;;;;;;;;;492340;241;27562;-72
2021/08/05 00:57:53;;;;;;;2.53;2.33;;;14.80;99.90;;;;;;492313;241;27499;-72
2021/08/05 00:59:55;;;;;;;2.47;2.27;;;14.80;99.90;;;;;;492305;241;28586;-72
2021/08/05 01:01:57;;;;;;;3.00;2.70;;;;;;;;;;492350;241;27527;-71
2021/08/05 01:04:01;;;;;;;2.70;2.50;;;;;;;;;;492310;241;27542;-71
2021/08/05 01:06:04;;;;;;;3.07;2.83;;;;;;;;;;492352;241;26270;-71
2021/08/05 01:08:06;;;;;;;2.83;2.63;;;;;;;;;;492357;241;26327;-71
2021/08/05 01:10:07;;;;;;;3.17;2.93;;;14.70;99.90;;;;;;492351;241;27468;-71
2021/08/05 01:12:09;;;;;;;2.77;2.57;;;14.70;99.90;;;;;;492298;241;28810;-71
2021/08/05 01:14:10;;;;;;;2.60;2.40;;;14.60;99.90;;;;;;492226;241;28523;-72
2021/08/05 01:16:12;;;;;;;2.97;2.77;;;;;;;;;;491956;241;28463;-71
2021/08/05 01:18:13;;;;;;;2.27;2.17;;;14.50;99.90;;;;;;492348;241;27499;-70
2021/08/05 01:20:14;;;;;;;2.97;2.77;;;14.40;99.90;;;;;;492358;241;28870;-71
2021/08/05 01:22:16;;;;;;;2.80;2.10;;;14.30;99.90;;;;;;492326;241;28790;-70
2021/08/05 01:24:17;;;;;;;2.37;2.23;;;14.30;99.90;;;;;;492338;241;28837;-72
2021/08/05 01:26:18;;;;;;;2.50;2.30;;;14.30;99.90;;;;;;492316;241;29409;-71
2021/08/05 01:28:19;;;;;;;2.53;2.33;;;14.20;99.90;;;;;;492315;241;29313;-70
2021/08/05 01:30:21;;;;;;;2.27;2.17;;;14.10;99.90;;;;;;492320;241;28791;-70
2021/08/05 01:32:22;;;;;;;2.30;2.20;;;14.10;99.90;;;;;;492313;241;28389;-71
2021/08/05 01:34:23;;;;;;;4.23;2.40;;;14.10;99.90;;;;;;492313;241;28301;-71
2021/08/05 01:36:24;;;;;;;2.70;2.50;;;14.10;99.90;;;;;;492313;241;28391;-70
2021/08/05 01:38:26;;;;;;;2.20;2.10;;;14.00;99.90;;;;;;492316;241;28216;-70
2021/08/05 01:40:27;;;;;;;2.43;2.33;;;14.00;99.90;;;;;;492341;241;28319;-70
2021/08/05 01:42:28;;;;;;;2.43;2.23;;;14.00;99.90;;;;;;492320;241;28072;-70
2021/08/05 01:44:29;;;;;;;2.97;2.73;;;14.00;99.90;;;;;;492327;241;28311;-70
2021/08/05 01:46:31;;;;;;;2.90;2.70;;;14.00;99.90;;;;;;492325;241;28332;-70
2021/08/05 01:48:32;;;;;;;3.23;2.37;;;13.90;99.90;;;;;;492313;241;28562;-70
2021/08/05 01:50:33;;;;;;;2.30;2.20;;;13.90;99.90;;;;;;492305;241;28818;-71
2021/08/05 01:52:34;;;;;;;2.47;2.13;;;13.90;99.90;;;;;;492310;241;28856;-71
2021/08/05 01:54:36;;;;;;;2.73;2.53;;;13.90;99.90;;;;;;492300;241;28915;-71
2021/08/05 01:56:37;;;;;;;2.70;2.50;;;13.90;99.90;;;;;;492327;241;28769;-71
2021/08/05 01:58:38;;;;;;;2.50;2.30;;;13.80;99.90;;;;;;492329;238;28275;-70
2021/08/05 02:00:39;;;;;;;2.80;2.60;;;13.80;99.90;;;;;;492196;241;28829;-71
2021/08/05 02:02:41;;;;;;;2.93;2.73;;;13.80;99.90;;;;;;492309;241;28175;-71
2021/08/05 02:04:42;;;;;;;2.43;2.33;;;13.80;99.90;;;;;;492236;241;28293;-71
2021/08/05 02:06:43;;;;;;;2.73;2.53;;;13.80;99.90;;;;;;492307;241;28191;-70
2021/08/05 02:08:44;;;;;;;3.20;2.90;;;13.80;99.90;;;;;;492319;241;28186;-72
2021/08/05 02:10:46;;;;;;;7.53;2.50;;;13.80;99.90;;;;;;492314;241;28219;-70
2021/08/05 02:12:47;;;;;;;2.70;2.50;;;13.80;99.90;;;;;;492314;241;28086;-70
2021/08/05 02:14:48;;;;;;;2.77;2.57;;;13.80;99.90;;;;;;492288;241;28547;-70
2021/08/05 02:16:49;;;;;;;2.60;2.40;;;13.90;99.90;;;;;;492283;241;29025;-70
2021/08/05 02:18:51;;;;;;;2.60;2.43;;;13.90;99.90;;;;;;492327;241;28892;-69
2021/08/05 02:20:52;;;;;;;2.17;2.07;;;13.80;99.90;;;;;;492308;241;28788;-70
2021/08/05 02:22:53;;;;;;;2.53;2.33;;;13.80;99.90;;;;;;492290;241;28466;-70
2021/08/05 02:24:54;;;;;;;2.70;2.50;;;13.80;99.90;;;;;;492300;241;28121;-70
2021/08/05 02:26:56;;;;;;;2.63;2.43;;;13.80;99.90;;;;;;492306;241;28200;-71
2021/08/05 02:28:57;;;;;;;2.73;2.53;;;13.70;99.90;;;;;;492310;241;28320;-70
2021/08/05 02:30:58;;;;;;;2.27;2.07;;;13.70;99.90;;;;;;492330;241;28208;-70
2021/08/05 02:32:59;;;;;;;2.30;2.03;;;13.70;99.90;;;;;;492310;241;28215;-70
2021/08/05 02:35:01;;;;;;;2.63;2.43;;;13.70;99.90;;;;;;492297;241;28197;-70
2021/08/05 02:37:02;;;;;;;2.60;2.50;;;13.70;99.90;;;;;;492312;240;28238;-71
2021/08/05 02:39:03;;;;;;;2.90;2.70;;;13.70;99.90;;;;;;492360;241;28155;-70
2021/08/05 02:41:04;;;;;;;2.10;2.00;;;13.70;99.90;;;;;;492352;241;28743;-70
2021/08/05 02:43:06;;;;;;;2.67;2.47;;;13.60;99.90;;;;;;492359;241;28967;-70
2021/08/05 02:45:08;;;;;;;2.73;2.53;;;;;;;;;;492364;241;28620;-71
2021/08/05 02:47:09;;;;;;;2.67;2.47;;;13.50;99.90;;;;;;492353;241;26604;-70
2021/08/05 02:49:11;;;;;;;2.67;2.47;;;13.50;99.90;;;;;;492332;241;28834;-70
2021/08/05 02:51:12;;;;;;;2.80;2.60;;;13.40;99.90;;;;;;492370;241;28155;-69
2021/08/05 02:53:13;;;;;;;2.80;2.50;;;13.40;99.90;;;;;;492341;241;28745;-71
2021/08/05 02:55:14;;;;;;;2.47;2.37;;;13.30;99.90;;;;;;492359;241;28877;-70
2021/08/05 02:57:16;;;;;;;2.70;2.50;;;13.30;99.90;;;;;;492344;241;28615;-70
2021/08/05 02:59:17;;;;;;;2.80;2.60;;;13.40;99.90;;;;;;492304;241;28179;-70
2021/08/05 03:01:18;;;;;;;2.40;2.30;;;13.30;99.90;;;;;;492323;241;28767;-70
2021/08/05 03:03:19;;;;;;;2.93;2.73;;;13.30;99.90;;;;;;492312;240;28163;-70
2021/08/05 03:05:21;;;;;;;2.70;2.50;;;13.20;99.90;;;;;;492325;241;28328;-71
2021/08/05 03:07:22;;;;;;;2.47;2.27;;;13.30;99.90;;;;;;492334;241;28043;-70
2021/08/05 03:09:23;;;;;;;7.07;2.90;;;13.20;99.90;;;;;;492340;240;28924;-71
2021/08/05 03:11:24;;;;;;;2.57;2.37;;;13.20;99.90;;;;;;492336;241;28340;-70
2021/08/05 03:13:26;;;;;;;3.10;2.80;;;13.20;99.90;;;;;;492311;241;28205;-70
2021/08/05 03:15:29;;;;;;;2.90;2.70;;;13.20;99.90;;;;;;492321;241;29263;-70
2021/08/05 03:17:28;;;;;;;2.70;2.50;;;13.30;99.90;;;;;;492227;241;28600;-70
2021/08/05 03:19:29;;;;;;;3.20;3.00;;;13.30;99.90;;;;;;492335;241;28766;-69
2021/08/05 03:21:31;;;;;;;2.60;2.40;;;13.40;99.90;;;;;;492333;241;28679;-70
2021/08/05 03:23:32;;;;;;;2.43;2.23;;;13.40;99.90;;;;;;492312;241;28679;-70
2021/08/05 03:25:33;;;;;;;2.90;2.70;;;13.40;99.90;;;;;;492366;241;28420;-70
2021/08/05 03:27:34;;;;;;;2.43;2.23;;;13.40;99.90;;;;;;492335;241;28273;-70
2021/08/05 03:29:36;;;;;;;2.97;2.60;;;13.40;99.90;;;;;;492337;241;28063;-70
2021/08/05 03:31:37;;;;;;;2.83;2.30;;;13.50;99.90;;;;;;492331;241;28814;-70
2021/08/05 03:33:38;;;;;;;2.57;2.37;;;13.50;99.90;;;;;;492316;240;28399;-72
2021/08/05 03:35:39;;;;;;;2.57;2.43;;;13.50;99.90;;;;;;492324;241;28294;-70
2021/08/05 03:37:41;;;;;;;2.33;2.23;;;13.50;99.90;;;;;;492297;241;28305;-70
2021/08/05 03:39:42;;;;;;;2.50;2.30;;;13.40;99.90;;;;;;492322;241;29374;-70
2021/08/05 03:41:43;;;;;;;2.57;2.37;;;13.40;99.90;;;;;;492301;241;28602;-71
2021/08/05 03:43:46;;;;;;;3.00;2.80;;;;;;;;;;492296;241;28610;-70
2021/08/05 03:45:47;;;;;;;2.70;2.50;;;13.40;99.90;;;;;;492299;241;26711;-70
2021/08/05 03:47:48;;;;;;;2.70;2.50;;;13.40;99.90;;;;;;492326;241;28424;-70
2021/08/05 03:49:49;;;;;;;2.90;2.70;;;13.40;99.90;;;;;;492341;241;28329;-70
2021/08/05 03:51:51;;;;;;;2.53;2.33;;;13.40;99.90;;;;;;492308;241;29299;-70
2021/08/05 03:53:52;;;;;;;3.17;2.97;;;13.30;99.90;;;;;;492324;241;28650;-70
2021/08/05 03:55:53;;;;;;;2.80;2.60;;;13.30;99.90;;;;;;492323;241;28713;-70
2021/08/05 03:57:54;;;;;;;2.60;2.40;;;13.20;99.90;;;;;;492326;241;28388;-70
2021/08/05 03:59:56;;;;;;;2.50;2.30;;;13.20;99.90;;;;;;492341;241;28160;-70
2021/08/05 04:01:57;;;;;;;2.93;2.73;;;13.30;99.90;;;;;;492315;241;28242;-70
2021/08/05 04:03:58;;;;;;;3.23;2.97;;;13.20;99.90;;;;;;492348;241;28092;-70
2021/08/05 04:05:59;;;;;;;2.60;2.40;;;13.20;99.90;;;;;;492342;241;28293;-70
2021/08/05 04:08:01;;;;;;;2.40;2.30;;;13.20;99.90;;;;;;492365;241;28222;-71
2021/08/05 04:10:02;;;;;;;2.87;2.67;;;13.10;99.90;;;;;;492066;241;28153;-72
2021/08/05 04:12:03;;;;;;;3.10;2.80;;;13.10;99.90;;;;;;492272;241;28320;-70
2021/08/05 04:14:04;;;;;;;2.77;2.57;;;13.10;99.90;;;;;;492315;240;28203;-72
2021/08/05 04:16:06;;;;;;;3.33;3.03;;;13.10;99.90;;;;;;492315;241;28755;-70
2021/08/05 04:18:07;;;;;;;4.27;2.53;;;13.20;99.90;;;;;;492327;241;28660;-71
2021/08/05 04:20:08;;;;;;;3.03;2.73;;;13.20;99.90;;;;;;492338;241;28572;-70
2021/08/05 04:22:09;;;;;;;3.00;2.80;;;13.10;99.90;;;;;;492312;241;28817;-70
2021/08/05 04:24:11;;;;;;;3.33;3.03;;;13.10;99.90;;;;;;492332;241;28409;-70
2021/08/05 04:26:12;;;;;;;3.00;2.80;;;13.10;99.90;;;;;;492334;241;28239;-70
2021/08/05 04:28:13;;;;;;;2.73;2.53;;;13.10;99.90;;;;;;492329;241;28305;-69
2021/08/05 04:30:14;;;;;;;3.63;2.80;;;13.20;99.90;;;;;;492320;241;28529;-70
2021/08/05 04:32:16;;;;;;;2.77;2.57;;;13.20;99.90;;;;;;492324;241;28275;-69
2021/08/05 04:34:17;;;;;;;2.60;2.40;;;13.30;99.90;;;;;;492329;241;28221;-69
2021/08/05 04:36:18;;;;;;;2.70;2.50;;;13.30;99.90;;;;;;492330;241;28148;-70
2021/08/05 04:38:19;;;;;;;2.60;2.40;;;13.30;99.90;;;;;;492356;241;28188;-70
2021/08/05 04:40:21;;;;;;;3.13;2.83;;;13.40;99.90;;;;;;492327;241;28776;-71
2021/08/05 04:42:22;;;;;;;3.03;2.83;;;13.40;99.90;;;;;;492278;241;28647;-70
2021/08/05 04:44:23;;;;;;;3.60;3.30;;;13.40;99.90;;;;;;492298;241;28678;-70
2021/08/05 04:46:24;;;;;;;3.00;2.80;;;13.40;99.90;;;;;;492339;240;28373;-70
2021/08/05 04:48:29;;;;;;;2.90;2.70;;;13.40;99.90;;;;;;492357;241;28389;-70
2021/08/05 04:50:30;;;;;;;3.03;2.80;;;13.50;99.90;;;;;;492284;241;28187;-70
2021/08/05 04:52:31;;;;;;;3.17;2.90;;;13.50;99.90;;;;;;492327;241;28494;-71
2021/08/05 04:54:34;;;;;;;2.50;2.30;;;13.50;99.90;;;;;;492301;241;28584;-70
2021/08/05 04:56:34;;;;;;;2.93;2.73;;;13.50;99.90;;;;;;492252;241;28878;-70
2021/08/05 04:58:35;;;;;;;4.17;2.57;;;13.60;99.90;;;;;;492313;241;28809;-70
2021/08/05 05:00:36;;;;;;;3.13;2.93;;;13.60;99.90;;;;;;492316;241;28207;-70
2021/08/05 05:02:37;;;;;;;3.27;3.07;;;13.70;99.90;;;;;;492326;241;28265;-70
2021/08/05 05:04:39;;;;;;;3.57;3.37;;;13.70;99.90;;;;;;492280;241;28195;-70
2021/08/05 05:06:40;;;;;;;3.57;3.27;;;13.70;99.90;;;;;;492324;241;28517;-69
2021/08/05 05:08:41;;;;;;;3.83;3.47;;;13.70;99.90;;;;;;492325;241;28307;-70
2021/08/05 05:10:42;;;;;;;3.03;2.83;;;13.80;99.90;;;;;;492286;241;28196;-70
2021/08/05 05:12:44;;;;;;;3.47;3.17;;;13.70;99.90;;;;;;492234;241;28160;-69
2021/08/05 05:14:45;;;;;;;3.67;3.40;;;13.70;99.90;;;;;;492245;241;28491;-69
2021/08/05 05:16:46;;;;;;;3.23;3.03;;;13.70;99.90;;;;;;492267;241;28183;-69
2021/08/05 05:18:47;;;;;;;3.10;2.80;;;13.70;99.90;;;;;;492261;241;28910;-70
2021/08/05 05:20:49;;;;;;;3.23;3.03;;;13.80;99.90;;;;;;492266;241;28784;-70
2021/08/05 05:22:50;;;;;;;3.50;3.20;;;13.80;99.90;;;;;;491786;241;28932;-71
2021/08/05 05:24:51;;;;;;;3.50;3.20;;;13.80;99.90;;;;;;492235;241;28564;-72
2021/08/05 05:26:52;;;;;;;3.50;3.20;;;13.90;99.90;;;;;;492300;241;28529;-72
2021/08/05 05:28:54;;;;;;;4.43;3.33;;;14.00;99.90;;;;;;492232;241;28791;-72
2021/08/05 05:30:55;;;;;;;3.43;3.23;;;14.00;99.90;;;;;;492297;241;28811;-71
2021/08/05 05:32:56;;;;;;;3.20;3.00;;;14.10;99.90;;;;;;492331;237;28715;-72
2021/08/05 05:34:58;;;;;;;3.80;3.50;;;;;;;;;;492344;241;28413;-70
2021/08/05 05:36:59;;;;;;;3.70;3.40;;;14.30;99.90;;;;;;492337;241;27530;-70
2021/08/05 05:39:01;;;;;;;3.17;2.97;;;14.70;99.90;;;;;;492292;241;28425;-69
2021/08/05 05:41:02;;;;;;;4.07;3.77;;;14.50;99.90;;;;;;492262;241;28469;-70
2021/08/05 05:43:04;;;;;;;4.30;3.90;;;14.60;99.90;;;;;;492302;241;28432;-70
2021/08/05 05:45:04;;;;;;;4.17;3.60;;;14.70;99.90;;;;;;492217;241;29329;-70
2021/08/05 05:47:06;;;;;;;3.80;3.50;;;14.90;99.90;;;;;;492328;241;29129;-72
2021/08/05 05:49:07;;;;;;;4.03;3.60;;;15.00;99.90;;;;;;492353;241;29366;-72
2021/08/05 05:51:08;;;;;;;6.00;3.70;;;15.10;99.90;;;;;;492337;241;28780;-71
2021/08/05 05:53:10;;;;;;;4.20;3.80;;;15.10;99.90;;;;;;492324;241;28902;-72
2021/08/05 05:55:11;;;;;;;3.80;3.50;;;15.20;99.90;;;;;;492351;241;28827;-72
2021/08/05 05:57:12;;;;;;;3.93;3.53;;;15.20;99.90;;;;;;492307;241;28874;-72
2021/08/05 05:59:14;;;;;;;3.30;3.00;;;;;;;;;;492352;241;28808;-72
2021/08/05 06:01:16;;;;;;;3.43;3.23;;;;;;;;;;492326;241;27522;-72
2021/08/05 06:03:18;;;;;;;3.90;3.60;;;15.10;99.90;;;;;;492316;241;27510;-72
2021/08/05 06:05:19;;;;;;;4.20;3.83;;;15.00;99.90;;;;;;492302;241;27954;-69
2021/08/05 06:07:21;;;;;;;4.03;3.73;;;15.10;99.90;;;;;;492308;241;29739;-69
2021/08/05 06:09:22;;;;;;;3.67;3.20;;;15.00;99.90;;;;;;492310;241;29286;-69
2021/08/05 06:11:26;;;;;;;3.97;3.27;;;;;;;;;;492308;241;28711;-71
2021/08/05 06:13:25;;;;;;;4.00;3.60;;;15.10;99.90;;;;;;492231;241;27411;-72
2021/08/05 06:15:27;;;;;;;3.83;3.53;;;15.20;99.90;;;;;;492322;241;28763;-70
2021/08/05 06:17:28;;;;;;;3.53;3.30;;;15.30;99.90;;;;;;492315;241;28799;-70
2021/08/05 06:19:30;;;;;;;3.80;3.50;;;;;;;;;;492324;241;28760;-72
2021/08/05 06:21:32;;;;;;;3.63;3.33;;;;;;;;;;492322;241;27403;-72
2021/08/05 06:23:34;;;;;;;3.27;2.97;;;;;;;;;;492303;241;27915;-70
2021/08/05 06:25:36;;;;;;;4.00;3.07;;;15.70;99.90;;;;;;492330;241;27360;-72
2021/08/05 06:27:37;;;;;;;3.13;2.93;;;15.90;99.90;;;;;;492275;241;28861;-72
2021/08/05 06:29:39;;;;;;;3.70;3.40;;;;;;;;;;492320;241;28901;-72
2021/08/05 06:31:40;;;;;;;3.27;3.00;;;16.00;99.90;;;;;;492319;241;26281;-71
2021/08/05 06:33:44;;;;;;;3.90;2.97;;;;;;;;;;492267;241;28778;-70
2021/08/05 06:35:45;;;;;;;3.50;3.30;;;16.10;99.90;;;;;;492306;241;26345;-72
2021/08/05 06:37:47;;;;;;;3.37;3.07;;;16.20;99.90;;;;;;492304;241;28890;-71
2021/08/05 06:39:48;;;;;;;2.80;2.60;;;16.30;99.90;;;;;;492298;241;28694;-72
2021/08/05 06:41:49;;;;;;;3.70;3.10;;;16.40;99.90;;;;;;492305;241;28809;-71
2021/08/05 06:43:50;;;;;;;3.40;3.10;;;16.40;99.90;;;;;;492295;241;29273;-71
2021/08/05 06:45:52;;;;;;;5.40;3.30;;;16.50;99.90;;;;;;492296;241;29281;-71
2021/08/05 06:47:53;;;;;;;3.40;3.20;;;16.60;99.90;;;;;;492297;241;29202;-72
2021/08/05 06:49:54;;;;;;;3.50;3.20;;;16.70;99.90;;;;;;492298;241;28807;-72
2021/08/05 06:51:55;;;;;;;3.50;3.20;;;16.70;99.90;;;;;;492286;241;28660;-71
2021/08/05 06:53:57;;;;;;;3.17;2.87;;;16.60;99.90;;;;;;492268;241;28724;-72
2021/08/05 06:55:58;;;;;;;3.57;3.27;;;16.70;99.90;;;;;;492267;241;28692;-71
2021/08/05 06:57:59;;;;;;;3.60;3.30;;;16.70;99.90;;;;;;492281;241;28712;-71
2021/08/05 07:00:00;;;;;;;3.43;2.97;;;16.80;99.90;;;;;;492312;241;28706;-71
2021/08/05 07:02:02;;;;;;;3.03;2.83;;;16.80;99.90;;;;;;492227;241;28862;-72
2021/08/05 07:04:03;;;;;;;3.17;2.97;;;16.80;99.90;;;;;;492215;241;28714;-72
2021/08/05 07:06:05;;;;;;;3.50;3.20;;;16.80;99.90;;;;;;492194;241;28712;-72
2021/08/05 07:08:05;;;;;;;3.40;3.20;;;16.90;99.90;;;;;;492282;241;29283;-71
2021/08/05 07:10:07;;;;;;;3.50;3.30;;;16.80;99.90;;;;;;492313;241;29285;-72
2021/08/05 07:12:08;;;;;;;3.70;3.40;;;16.80;99.90;;;;;;492307;241;29324;-71
2021/08/05 07:14:10;;;;;;;3.73;3.43;;;16.80;99.90;;;;;;492296;241;28824;-70
2021/08/05 07:16:10;;;;;;;2.83;2.63;;;16.90;99.90;;;;;;492306;241;28782;-71
2021/08/05 07:18:12;;;;;;;3.23;3.03;;;16.90;99.90;;;;;;492318;241;28888;-71
2021/08/05 07:20:13;;;;;;;2.90;2.70;;;16.90;99.90;;;;;;492286;240;28859;-72
2021/08/05 07:22:14;;;;;;;3.23;3.00;;;16.90;99.90;;;;;;492299;241;28774;-71
2021/08/05 07:24:15;;;;;;;3.20;2.90;;;17.00;99.90;;;;;;492305;241;28810;-71
2021/08/05 07:26:17;;;;;;;5.60;2.93;;;17.10;99.90;;;;;;492304;241;28807;-71
2021/08/05 07:28:18;;;;;;;3.90;3.50;;;17.20;99.90;;;;;;492335;241;28772;-70
2021/08/05 07:30:19;;;;;;;3.50;2.83;;;17.20;99.90;;;;;;492328;241;28812;-71
2021/08/05 07:32:20;;;;;;;3.50;3.20;;;17.30;99.90;;;;;;492324;241;29238;-71
2021/08/05 07:34:22;;;;;;;3.60;3.30;;;17.30;99.90;;;;;;492330;241;29295;-71
2021/08/05 07:36:23;;;;;;;3.37;3.17;;;17.30;99.90;;;;;;492329;241;30145;-71
2021/08/05 07:38:24;;;;;;;3.40;3.20;;;17.20;99.90;;;;;;492330;241;28787;-72
2021/08/05 07:40:25;;;;;;;3.00;2.80;;;17.20;99.90;;;;;;492318;241;28819;-72
2021/08/05 07:42:27;;;;;;;3.17;2.83;;;17.30;99.90;;;;;;492335;241;28848;-72
2021/08/05 07:44:28;;;;;;;2.73;2.57;;;17.10;99.90;;;;;;492336;241;28894;-70
2021/08/05 07:46:29;;;;;;;3.30;3.00;;;17.20;99.90;;;;;;492315;241;28691;-70
2021/08/05 07:48:30;;;;;;;3.03;2.83;;;17.20;99.90;;;;;;492342;241;28808;-71
2021/08/05 07:50:32;;;;;;;2.73;2.53;;;17.30;99.90;;;;;;492318;241;28838;-70
2021/08/05 07:52:33;;;;;;;3.37;3.07;;;17.20;99.90;;;;;;492300;241;28775;-70
2021/08/05 07:54:34;;;;;;;3.07;2.77;;;17.10;99.90;;;;;;492273;241;28803;-70
2021/08/05 07:56:35;;;;;;;3.53;3.30;;;17.00;99.90;;;;;;492345;241;29338;-70
2021/08/05 07:58:37;;;;;;;3.33;3.00;;;16.90;99.90;;;;;;492351;241;29394;-69
2021/08/05 08:00:39;;;;;;;3.00;2.80;;;;;;;;;;492346;241;29316;-72
2021/08/05 08:02:41;;;;;;;3.47;3.20;;;16.80;99.90;;;;;;492339;241;28065;-71
2021/08/05 08:04:44;;;;;;;3.70;3.30;;;;;;;;;;492326;241;27404;-72
2021/08/05 08:06:47;;;;;;;3.33;3.03;;;;;;;;;;492324;241;26349;-72
2021/08/05 08:08:48;;;;;;;3.10;2.80;;;16.80;99.90;;;;;;492311;241;26263;-69
2021/08/05 08:10:49;;;;;;;3.10;2.90;;;16.70;99.90;;;;;;492321;241;28778;-69
2021/08/05 08:12:50;;;;;;;2.93;2.73;;;16.80;99.90;;;;;;492349;241;28892;-71
2021/08/05 08:14:52;;;;;;;3.17;2.63;;;16.80;99.90;;;;;;492347;241;28805;-71
2021/08/05 08:16:54;;;;;;;4.57;2.47;;;;;;;;;;492328;241;28837;-70
2021/08/05 08:18:56;;;;;;;2.93;2.73;;;;;;;;;;492323;241;27587;-69
2021/08/05 08:20:58;;;;;;;3.07;2.87;;;;;;;;;;492330;241;27419;-71
2021/08/05 08:23:00;;;;;;;3.13;2.93;;;;;;;;;;492311;241;27891;-72
2021/08/05 08:25:01;;;;;;;2.43;2.30;;;17.00;99.90;;;;;;492315;241;28059;-71
2021/08/05 08:27:02;;;;;;;2.83;2.53;;;17.20;99.90;;;;;;492343;241;29276;-71
2021/08/05 08:29:04;;;;;;;3.03;2.67;;;17.40;99.90;;;;;;492353;241;29238;-72
2021/08/05 08:31:05;;;;;;;2.47;2.30;;;17.60;99.90;;;;;;492364;241;28798;-72
2021/08/05 08:33:06;;;;;;;2.80;2.60;;;17.70;99.90;;;;;;492352;241;28792;-71
2021/08/05 08:35:07;;;;;;;2.80;2.60;;;17.80;99.90;;;;;;492327;241;28865;-71
2021/08/05 08:37:09;;;;;;;3.07;2.60;;;17.80;99.90;;;;;;492342;241;28805;-71
2021/08/05 08:39:10;;;;;;;2.90;2.70;;;18.00;99.90;;;;;;492314;241;28785;-71
2021/08/05 08:41:14;;;;;;;3.27;2.97;;;18.20;99.90;;;;;;492341;241;28818;-73
2021/08/05 08:43:15;;;;;;;3.10;2.90;;;18.30;99.90;;;;;;492306;241;28834;-69
2021/08/05 08:45:16;;;;;;;3.70;3.40;;;18.30;99.90;;;;;;492325;241;28771;-70
2021/08/05 08:47:17;;;;;;;3.50;2.90;;;18.30;99.90;;;;;;492334;241;29245;-70
2021/08/05 08:49:19;;;;;;;3.00;2.80;;;18.30;99.90;;;;;;492303;241;29313;-70
2021/08/05 08:51:20;;;;;;;3.10;2.80;;;18.50;99.90;;;;;;492309;241;29254;-70
2021/08/05 08:53:25;;;;;;;2.63;2.43;;;18.60;99.90;;;;;;492299;241;28818;-70
2021/08/05 08:55:23;;;;;;;2.80;2.60;;;18.60;99.90;;;;;;491737;241;28908;-70
2021/08/05 08:57:26;;;;;;;2.63;2.43;;;18.60;99.90;;;;;;492344;241;28757;-70
2021/08/05 08:59:25;;;;;;;2.23;2.13;;;18.60;99.90;;;;;;492208;241;28917;-70
2021/08/05 09:01:26;;;;;;;2.73;2.60;;;18.60;99.90;;;;;;492347;241;28753;-70
2021/08/05 09:03:28;;;;;;;3.03;2.73;;;18.60;99.90;;;;;;492337;241;28916;-70
2021/08/05 09:05:29;;;;;;;3.40;2.73;;;18.60;99.90;;;;;;492348;241;28885;-70
2021/08/05 09:07:30;;;;;;;3.23;2.33;;;18.70;99.90;;;;;;492327;241;28787;-70
2021/08/05 09:09:31;;;;;;;2.60;2.40;;;18.70;99.90;;;;;;492344;241;28810;-71
2021/08/05 09:11:32;;;;;;;2.80;2.50;;;18.80;99.90;;;;;;492345;241;29423;-70
2021/08/05 09:13:34;;;;;;;2.73;2.53;;;18.80;99.90;;;;;;492330;241;29261;-70
2021/08/05 09:15:35;;;;;;;3.20;2.43;;;18.70;99.90;;;;;;492353;241;29275;-71
2021/08/05 09:17:36;;;;;;;2.57;2.47;;;18.70;99.90;;;;;;492349;241;29222;-71
2021/08/05 09:19:38;;;;;;;2.23;2.13;;;18.60;99.90;;;;;;492337;241;28892;-71
2021/08/05 09:21:39;;;;;;;3.23;2.93;;;18.50;99.90;;;;;;492354;241;28778;-71
2021/08/05 09:23:40;;;;;;;2.83;2.63;;;18.60;99.90;;;;;;492328;241;28809;-71
2021/08/05 09:25:41;;;;;;;2.97;2.77;;;18.70;99.90;;;;;;492345;241;28805;-71
2021/08/05 09:27:43;;;;;;;2.50;2.40;;;18.90;99.90;;;;;;492332;240;28823;-71
2021/08/05 09:29:44;;;;;;;2.60;2.50;;;19.20;99.90;;;;;;492352;241;28774;-71
2021/08/05 09:31:45;;;;;;;2.30;2.10;;;19.40;99.90;;;;;;492339;241;28754;-71
2021/08/05 09:33:46;;;;;;;2.60;2.50;;;19.70;99.90;;;;;;492316;241;28693;-71
2021/08/05 09:35:51;;;;;;;2.63;2.43;;;19.70;99.90;;;;;;492327;241;29281;-72
2021/08/05 09:37:49;;;;;;;2.20;2.10;;;19.70;99.90;;;;;;491939;241;29257;-71
2021/08/05 09:39:50;;;;;;;2.10;2.00;;;19.80;99.90;;;;;;492338;241;29394;-71
2021/08/05 09:41:51;;;;;;;2.27;2.17;;;19.90;99.90;;;;;;492339;241;29222;-72
2021/08/05 09:43:53;;;;;;;2.07;1.97;;;20.00;99.90;;;;;;492129;241;28901;-71
2021/08/05 09:45:54;;;;;;;2.30;2.20;;;20.00;99.90;;;;;;492299;241;28820;-71
2021/08/05 09:47:57;;;;;;;2.40;2.30;;;20.00;99.90;;;;;;492311;241;28875;-71
2021/08/05 09:49:56;;;;;;;2.50;2.30;;;20.10;99.90;;;;;;492197;241;28874;-71
2021/08/05 09:51:58;;;;;;;2.37;2.27;;;20.20;99.90;;;;;;492317;241;28779;-71
2021/08/05 09:53:59;;;;;;;2.27;2.10;;;20.10;99.90;;;;;;492309;241;28824;-71
2021/08/05 09:56:00;;;;;;;2.90;2.70;;;20.10;99.90;;;;;;492315;241;28821;-71
2021/08/05 09:58:01;;;;;;;2.70;2.50;;;20.10;99.90;;;;;;492303;241;28915;-71
2021/08/05 10:00:03;;;;;;;2.60;2.50;;;20.20;99.90;;;;;;492303;241;29309;-71
2021/08/05 10:02:09;;;;;;;2.80;2.60;;;20.20;99.90;;;;;;492318;241;29139;-72
2021/08/05 10:04:05;;;;;;;2.27;2.17;;;20.10;99.90;;;;;;491793;241;29248;-71
2021/08/05 10:06:07;;;;;;;2.47;2.37;;;20.00;99.90;;;;;;492294;241;29311;-71
2021/08/05 10:08:08;;;;;;;2.83;2.63;;;20.00;99.90;;;;;;492282;241;28811;-71
2021/08/05 10:10:09;;;;;;;2.67;2.47;;;20.00;99.90;;;;;;492320;241;28682;-72
2021/08/05 10:12:10;;;;;;;2.70;2.50;;;20.00;99.90;;;;;;492311;241;28845;-72
2021/08/05 10:14:15;;;;;;;2.83;2.73;;;20.20;99.90;;;;;;492306;241;28786;-71
2021/08/05 10:16:13;;;;;;;2.40;2.30;;;20.20;99.90;;;;;;492104;241;28826;-71
2021/08/05 10:18:14;;;;;;;2.57;2.47;;;20.30;99.90;;;;;;492308;241;28746;-71
2021/08/05 10:20:15;;;;;;;2.40;2.30;;;20.50;99.90;;;;;;492327;241;28820;-71
2021/08/05 10:22:16;;;;;;;2.40;2.30;;;20.70;99.90;;;;;;492337;241;30331;-71
2021/08/05 10:24:18;;;;;;;2.23;2.10;;;20.80;99.90;;;;;;492349;241;29151;-71
2021/08/05 10:26:19;;;;;;;2.40;2.30;;;20.90;99.90;;;;;;492329;241;29369;-71
2021/08/05 10:28:20;;;;;;;2.50;2.40;;;20.90;99.90;;;;;;492238;241;28770;-70
2021/08/05 10:30:21;;;;;;;3.00;2.80;;;20.90;99.90;;;;;;491644;241;28794;-70
2021/08/05 10:32:23;;;;;;;2.23;2.13;;;21.10;99.90;;;;;;492196;241;28746;-71
2021/08/05 10:34:24;;;;;;;1.93;1.83;;;21.30;99.90;;;;;;492313;241;28773;-71
2021/08/05 10:36:25;;;;;;;2.17;2.07;;;21.40;99.90;;;;;;492306;241;28800;-71
2021/08/05 10:38:26;;;;;;;2.23;2.13;;;21.40;99.90;;;;;;492340;241;28861;-71
2021/08/05 10:40:28;;;;;;;2.20;2.10;;;21.30;99.90;;;;;;492324;241;28816;-71
2021/08/05 10:42:29;;;;;;;2.13;2.03;;;21.30;99.90;;;;;;492335;241;28788;-71